Frankfort, Maine
Current Conditions -  °F | °C
As of 2:53 PM on Saturday 25 Oct 2014 (Local Time) from KBGR Reporting Station
Scattered Clouds Scattered Clouds  
Wind Chill: 60°   Ceiling: Unl
Heat Index: 60°   Visibility: 10mi
Dew Point: 33°   Wind: 5mph
Humidity: 36%   Direction: 330°NNW
Pressure: 29.56"   Gusts: NA
Location:  44.61°N, 68.88°W
Report Text: KBGR 251853Z 33004KT 10SM FEW060 FEW130 SCT250 16/01 A2956 RMK AO2 SLP010 T01560006
Loading
Personal Weather Stations






























Interactive Weather Map
Tropical Storm Tracking
New forecast layout! Learn more

10-Day Weather Forecast

Advertisements
Track Severe Weather on mobile